FTA weather

Futuna Airport
Futuna Island, Tafea, Vanuatu

Public forecast

Using degrees Celsius for public forecast. Weather courtesy of forecast.io.

METAR (pilot weather report)

Report is more than 2 hours old.

Closest report is Aneityum Airport, 51.1 nm (94.7 km) SSW. Retrieved 2019/06/18 06:00 UTC (2 hours ago):

NVVA 180600Z 00000KT 9999 FEW025 SCT300 24/21 Q1012

TAF (pilot weather forecast)

Closest forecast is Aneityum Airport, 51.1 nm (94.7 km) SSW. Retrieved 2019/06/18 06:32 UTC (1 hour ago):

TAF NVVA 180430Z 1806/1906 13005KT 9999 SCT020 BKN040 PROB30 INTER 1806/1812 9000 -SHRA BKN018